Latest Weather Observations for Territory Grape Farm

IDD60801

Issued at 12:01 pm CST Thursday 25 August 2016 (issued every 30 minutes, with the page automatically refreshed every 10 minutes)

About weather observations | Map of weather stations | Latest weather observations for NT | Other Formats
Station Details ID: 015643 Name: TERRITORY GRAPE FARM Lat: -22.45 Lon: 133.64 Height: 565.6 m
Data from the previous 72 hours. | See also: Recent months at Territory Grape Farm
Date/Time
CST
Temp
°C
App
Temp
°C
Dew
Point
°C
Rel
Hum
%
Delta-T
°C
Wind Press
QNH
hPa
Press
MSL
hPa
Rain since
9am
mm
Dir  Spd
km/h
Gust
km/h
Spd
kts
Gust
kts
25/12:00pm 18.6 14.7 -1.8 25 8.8 SE 9 19 5 10 1019.1 1017.8 0.0
25/11:30am 18.4 14.1 -2.0 25 8.8 ESE 11 24 6 13 1019.7 1018.4 0.0
25/11:00am 17.2 12.0 -2.4 26 8.3 ESE 15 26 8 14 1019.9 1018.6 0.0
25/10:30am 17.4 12.8 -1.3 28 8.1 SE 13 20 7 11 1020.3 1019.0 0.0
25/10:00am 16.0 10.0 -1.5 30 7.5 ESE 20 28 11 15 1020.4 1019.1 0.0
25/09:30am 15.4 9.6 -0.4 34 6.8 ESE 20 28 11 15 1020.3 1019.0 0.0
25/09:00am 14.1 8.6 0.4 39 6.0 ESE 19 22 10 12 1020.2 1018.9 0.0
25/08:30am 12.3 7.6 0.7 45 5.0 ESE 15 20 8 11 1019.9 1018.6 0.0
25/08:00am 9.2 5.7 1.4 58 3.3 SSE 9 13 5 7 1019.6 1018.3 0.0
25/07:30am 5.9 2.3 0.5 68 2.2 SSW 9 11 5 6 1019.4 1018.1 0.0
25/07:00am 4.7 1.4 0.1 72 1.8 SW 7 9 4 5 1019.0 1017.7 0.0
25/06:30am 4.6 1.5 0.2 73 1.7 S 6 7 3 4 1018.6 1017.3 0.0
25/06:00am 4.4 2.0 -0.6 70 1.9 S 2 4 1 2 1018.3 1016.9 0.0
25/05:30am 5.6 2.3 0.0 67 2.2 S 7 9 4 5 1018.0 1016.7 0.0
25/05:00am 5.4 2.1 0.0 68 2.1 SSE 7 9 4 5 1017.7 1016.4 0.0
25/04:30am 5.7 2.6 0.3 68 2.2 SSE 6 7 3 4 1017.5 1016.2 0.0
25/04:00am 5.3 2.6 0.1 69 2.1 SE 4 6 2 3 1017.2 1015.9 0.0
25/03:30am 5.4 2.2 -0.6 65 2.3 ESE 6 6 3 3 1017.1 1015.8 0.0
25/03:00am 7.4 3.4 0.2 60 2.9 SSE 11 13 6 7 1017.1 1015.8 0.0
25/02:30am 7.3 4.2 0.3 61 2.9 SSE 6 7 3 4 1017.4 1016.1 0.0
25/02:00am 6.8 3.8 0.5 64 2.6 ESE 6 7 3 4 1017.7 1016.4 0.0
25/01:30am 7.4 4.0 -0.3 58 3.1 ESE 7 9 4 5 1017.6 1016.3 0.0
25/01:00am 8.5 5.2 0.2 56 3.4 SE 7 9 4 5 1017.8 1016.5 0.0
25/12:30am 8.4 5.3 0.1 56 3.4 ESE 6 6 3 3 1018.0 1016.7 0.0
25/12:00am 8.4 5.7 0.4 57 3.3 E 4 4 2 2 1018.2 1016.8 0.0
 
Date/Time
CST
Temp
°C
App
Temp
°C
Dew
Point
°C
Rel
Hum
%
Delta-T
°C
Wind Press
QNH
hPa
Press
MSL
hPa
Rain since
9am
mm
Dir  Spd
km/h
Gust
km/h
Spd
kts
Gust
kts
24/11:30pm 8.7 5.0 0.2 55 3.5 ENE 9 11 5 6 1018.3 1016.9 0.0
24/11:00pm 9.3 6.0 0.2 53 3.8 SE 7 9 4 5 1018.0 1016.7 0.0
24/10:30pm 10.9 7.2 0.0 47 4.6 SSE 9 11 5 6 1018.0 1016.7 0.0
24/10:00pm 11.1 7.4 -0.1 46 4.7 SE 9 11 5 6 1018.2 1016.8 0.0
24/09:30pm 12.0 7.9 -0.2 43 5.1 SE 11 13 6 7 1018.2 1016.8 0.0
24/09:00pm 12.7 8.9 -0.9 39 5.7 SSE 9 11 5 6 1018.2 1016.8 0.0
24/08:30pm 14.4 10.5 -1.6 33 6.7 SSE 9 13 5 7 1017.8 1016.5 0.0
24/08:00pm 15.2 10.9 -1.8 31 7.2 SSE 11 13 6 7 1017.5 1016.2 0.0
24/07:30pm 16.2 11.6 -1.4 30 7.5 SSE 13 17 7 9 1017.1 1015.8 0.0
24/07:00pm 17.0 12.4 -1.1 29 7.9 SSE 13 17 7 9 1016.6 1015.2 0.0
24/06:30pm 17.6 13.6 -2.1 26 8.4 SE 9 13 5 7 1016.0 1014.7 0.0
24/06:00pm 19.1 15.1 -2.5 23 9.3 SSE 9 19 5 10 1015.4 1014.1 0.0
24/05:30pm 19.8 15.7 -3.1 21 9.8 SE 9 15 5 8 1015.1 1013.7 0.0
24/05:00pm 20.1 15.6 -2.9 21 9.9 SSE 11 17 6 9 1014.9 1013.5 0.0
24/04:30pm 20.7 16.3 -2.4 21 10.1 SSE 11 20 6 11 1014.7 1013.3 0.0
24/04:00pm 20.6 15.7 -3.1 20 10.2 ESE 13 24 7 13 1014.5 1013.1 0.0
24/03:30pm 20.6 16.2 -2.5 21 10.1 S 11 24 6 13 1014.6 1013.2 0.0
24/03:00pm 20.8 16.1 -1.7 22 10.0 SSE 13 22 7 12 1014.6 1013.2 0.0
24/02:30pm 19.7 15.4 -2.0 23 9.5 SSW 11 22 6 12 1014.7 1013.3 0.0
24/02:00pm 20.2 15.4 -2.2 22 9.8 SE 13 24 7 13 1015.0 1013.6 0.0
24/01:30pm 19.3 14.7 -1.2 25 9.1 SE 13 24 7 13 1015.3 1013.9 0.0
24/01:00pm 18.7 14.2 -0.2 28 8.5 ESE 13 26 7 14 1015.7 1014.4 0.0
24/12:30pm 18.3 13.1 0.4 30 8.1 SE 17 28 9 15 1016.4 1015.0 0.0
24/12:00pm 18.6 13.9 1.2 31 8.0 SSE 15 24 8 13 1016.8 1015.4 0.0
24/11:30am 18.0 13.0 1.5 33 7.6 SSE 17 26 9 14 1017.3 1016.0 0.0
24/11:00am 16.7 11.3 1.2 35 7.0 SSE 19 28 10 15 1017.5 1016.2 0.0
24/10:30am 15.9 9.7 2.3 40 6.3 SSE 24 32 13 17 1017.7 1016.4 0.0
24/10:00am 14.9 11.3 4.9 51 4.8 SE 13 24 7 13 1017.8 1016.5 0.0
24/09:30am 13.0 9.1 5.2 59 3.7 SE 15 22 8 12 1017.9 1016.6 0.0
24/09:00am 11.8 8.7 5.7 66 2.9 SSE 11 19 6 10 1017.9 1016.6 0.0
24/08:30am 10.5 8.5 6.1 74 2.1 SSE 6 9 3 5 1017.6 1016.3 0.0
24/08:00am 8.3 6.7 6.4 88 0.9 S 4 6 2 3 1017.3 1016.0 0.0
24/07:30am 6.6 4.7 6.5 99 0.0 SSW 6 7 3 4 1017.0 1015.7 0.0
24/07:00am 4.8 3.1 4.2 96 0.3 SW 2 4 1 2 1016.6 1015.2 0.0
24/06:30am 5.1 2.7 4.4 95 0.3 SW 6 6 3 3 1016.0 1014.7 0.0
24/06:00am 5.8 3.5 4.9 94 0.4 SSW 6 6 3 3 1015.5 1014.2 0.0
24/05:30am 6.2 3.7 5.0 92 0.5 SSW 7 7 4 4 1015.0 1013.6 0.0
24/05:00am 6.9 4.6 5.8 93 0.5 S 7 9 4 5 1014.6 1013.2 0.0
24/04:30am 6.8 4.5 5.7 93 0.5 SSW 7 9 4 5 1014.4 1013.0 0.0
24/04:00am 7.4 5.3 6.0 91 0.7 S 6 7 3 4 1014.1 1012.8 0.0
24/03:30am 8.0 5.9 6.6 91 0.7 S 7 11 4 6 1014.1 1012.8 0.0
24/03:00am 8.2 6.1 6.5 89 0.8 S 7 9 4 5 1014.4 1013.0 0.0
24/02:30am 8.1 6.4 6.1 87 0.9 SSW 4 4 2 2 1014.0 1012.7 0.0
24/02:00am 9.3 6.8 6.7 84 1.3 S 9 11 5 6 1013.8 1012.4 0.0
24/01:30am 9.5 7.4 6.6 82 1.4 SSE 7 9 4 5 1013.9 1012.6 0.0
24/01:00am 10.1 7.7 6.8 80 1.6 SSE 9 11 5 6 1014.2 1012.9 0.0
24/12:30am 10.4 8.4 6.9 79 1.7 SE 7 11 4 6 1014.4 1013.0 0.0
24/12:00am 11.4 7.9 7.3 76 2.0 SSE 15 20 8 11 1014.5 1013.1 0.0
 
Date/Time
CST
Temp
°C
App
Temp
°C
Dew
Point
°C
Rel
Hum
%
Delta-T
°C
Wind Press
QNH
hPa
Press
MSL
hPa
Rain since
9am
mm
Dir  Spd
km/h
Gust
km/h
Spd
kts
Gust
kts
23/11:30pm 11.6 8.3 7.9 78 1.9 S 15 22 8 12 1014.4 1013.0 0.0
23/11:00pm 11.9 7.6 8.0 77 2.0 SSE 20 32 11 17 1014.4 1013.0 0.0
23/10:30pm 12.4 8.4 8.3 76 2.1 S 19 33 10 18 1014.5 1013.1 0.0
23/10:00pm 12.7 9.7 7.8 72 2.5 SSE 13 19 7 10 1013.8 1012.4 0.0
23/09:30pm 13.2 9.0 8.1 71 2.6 S 20 30 11 16 1013.6 1012.2 0.0
23/09:00pm 13.6 8.9 9.1 74 2.4 SSE 24 37 13 20 1013.2 1011.8 0.0
23/08:30pm 14.1 8.6 9.1 72 2.6 S 28 43 15 23 1012.8 1011.4 0.0
23/08:00pm 15.9 12.6 9.6 66 3.4 S 17 26 9 14 1011.7 1010.3 0.0
23/07:30pm 16.9 13.2 10.3 65 3.6 SSE 20 28 11 15 1010.8 1009.4 0.0
23/07:00pm 18.1 14.5 10.7 62 4.1 SSE 20 28 11 15 1010.1 1008.7 0.0
23/06:30pm 18.9 14.2 10.7 59 4.6 S 26 37 14 20 1009.7 1008.3 0.0
23/06:00pm 21.8 18.1 6.5 37 8.0 S 15 22 8 12 1008.5 1007.1 0.0
23/05:30pm 22.6 18.8 7.6 38 8.1 SSW 17 26 9 14 1008.0 1006.6 0.0
23/05:00pm 23.3 19.8 8.6 39 8.0 SSW 17 30 9 16 1007.6 1006.1 0.0
23/04:30pm 23.1 18.6 8.4 39 8.0 SW 22 35 12 19 1007.4 1005.9 0.0
23/04:00pm 23.2 19.1 7.7 37 8.3 SW 19 30 10 16 1007.1 1005.6 0.0
23/03:30pm 24.0 19.2 4.4 28 10.0 W 19 30 10 16 1006.9 1005.4 0.0
23/03:00pm 23.5 21.4 8.4 38 8.3 W 9 15 5 8 1007.0 1005.5 0.0
23/02:30pm 23.5 21.2 9.1 40 8.0 W 11 17 6 9 1007.3 1005.8 0.0
23/02:00pm 22.9 21.1 10.7 46 6.9 WSW 11 17 6 9 1007.6 1006.1 0.0
23/01:30pm 23.1 22.2 11.5 48 6.7 WNW 7 15 4 8 1008.0 1006.6 0.0
23/01:00pm 21.5 20.8 12.1 55 5.4 W 7 13 4 7 1008.8 1007.3 0.0
23/12:30pm 20.6 20.2 12.3 59 4.8 SE 6 11 3 6 1009.3 1007.9 0.0
23/12:00pm 20.0 20.0 13.5 66 3.8 NE 6 9 3 5 1009.8 1008.4 0.0
23/11:30am 19.9 20.0 14.5 71 3.2 ENE 7 17 4 9 1010.0 1008.6 0.0
23/11:00am 18.4 17.8 14.7 79 2.2 NE 11 19 6 10 1010.2 1008.8 0.0
23/10:30am 16.6 15.1 14.2 86 1.4 NNE 15 20 8 11 1010.5 1009.1 0.0
23/10:00am 16.3 14.8 14.1 87 1.3 NE 15 22 8 12 1010.7 1009.2 0.0
23/09:30am 16.0 14.9 14.2 89 1.1 NE 13 17 7 9 1010.7 1009.2 0.0
23/09:00am 15.4 15.2 14.6 95 0.5 ENE 9 13 5 7 1010.5 1009.1 0.0
23/08:30am 15.5 15.7 14.7 95 0.5 ENE 7 11 4 6 1010.4 1009.0 0.0
23/08:00am 15.4 15.1 14.3 93 0.6 NE 9 15 5 8 1010.3 1008.9 0.0
23/07:30am 15.2 14.4 13.9 92 0.8 ENE 11 15 6 8 1009.9 1008.5 0.0
23/07:00am 15.1 14.2 13.6 91 0.9 E 11 15 6 8 1009.5 1008.1 0.0
23/06:30am 15.3 14.4 13.8 91 0.9 E 11 15 6 8 1009.3 1007.9 0.0
23/06:00am 15.3 14.4 13.8 91 0.9 ENE 11 17 6 9 1009.3 1007.9 0.0
23/05:30am 15.3 14.1 14.0 92 0.8 E 13 17 7 9 1008.8 1007.3 0.0
23/05:00am 15.2 14.0 14.1 93 0.6 E 13 20 7 11 1008.5 1007.1 0.0
23/04:30am 15.1 13.1 14.0 93 0.6 E 17 20 9 11 1008.5 1007.1 0.0
23/04:00am 15.2 14.1 14.4 95 0.5 E 13 17 7 9 1008.8 1007.3 0.0
23/03:30am 15.2 14.2 14.6 96 0.4 E 13 17 7 9 1008.8 1007.3 0.0
23/03:00am 15.2 13.9 14.7 97 0.3 ESE 15 20 8 11 1008.1 1006.7 0.0
23/02:30am 15.4 15.2 14.8 96 0.4 E 9 13 5 7 1009.0 1007.5 0.0
23/02:00am 15.6 15.4 14.8 95 0.5 E 9 11 5 6 1009.1 1007.6 0.0
23/01:30am 15.9 14.9 14.6 92 0.8 E 13 17 7 9 1009.3 1007.9 0.0
23/01:00am 16.6 16.3 14.4 87 1.3 E 9 15 5 8 1009.7 1008.3 0.0
23/12:30am 17.5 16.6 13.6 78 2.3 ESE 11 17 6 9 1010.0 1008.6 0.0
23/12:00am 17.9 16.4 11.9 68 3.4 ESE 11 19 6 10 1010.0 1008.6 0.0
 
Date/Time
CST
Temp
°C
App
Temp
°C
Dew
Point
°C
Rel
Hum
%
Delta-T
°C
Wind Press
QNH
hPa
Press
MSL
hPa
Rain since
9am
mm
Dir  Spd
km/h
Gust
km/h
Spd
kts
Gust
kts
22/11:30pm 19.5 17.0 6.6 43 6.7 SSW 9 20 5 11 1010.3 1008.9 0.0
22/11:00pm 18.6 17.6 10.2 58 4.6 SSE 6 11 3 6 1010.5 1009.1 0.0
22/10:30pm 18.3 18.3 11.1 63 4.0 WSW 2 4 1 2 1009.8 1008.4 0.0
22/10:00pm 18.1 17.0 11.9 67 3.5 WSW 9 11 5 6 1009.6 1008.2 0.0
22/09:30pm 18.0 18.2 12.9 72 2.9 N 4 6 2 3 1009.4 1008.0 0.0
22/09:00pm 17.9 18.0 12.6 71 3.0 N 4 4 2 2 1009.5 1008.1 0.0
22/08:30pm 18.3 19.0 12.1 67 3.5 CALM 0 0 0 0 1009.0 1007.5 0.0
22/08:00pm 18.3 19.0 12.3 68 3.4 CALM 0 0 0 0 1008.4 1007.0 0.0
22/07:30pm 19.2 18.9 10.2 56 5.0 WSW 2 4 1 2 1008.1 1006.7 0.0
22/07:00pm 20.0 19.0 9.0 49 6.0 W 4 6 2 3 1007.9 1006.5 0.0
22/06:30pm 21.6 19.8 7.8 41 7.4 WNW 7 9 4 5 1007.6 1006.1 0.0
22/06:00pm 23.8 20.3 7.0 34 9.0 WNW 15 22 8 12 1007.4 1005.9 0.0
22/05:30pm 24.4 21.0 7.5 34 9.2 WNW 15 19 8 10 1007.1 1005.6 0.0
22/05:00pm 24.4 21.0 7.5 34 9.1 WNW 15 24 8 13 1007.1 1005.6 0.0
22/04:30pm 25.0 22.1 8.1 34 9.3 WNW 13 19 7 10 1007.3 1005.8 0.0
22/04:00pm 25.1 21.3 7.7 33 9.5 NW 17 26 9 14 1007.4 1005.9 0.0
22/03:30pm 24.6 21.8 8.5 36 8.9 NW 13 24 7 13 1007.6 1006.1 0.0
22/03:00pm 24.5 23.0 10.4 41 8.0 NW 9 17 5 9 1007.8 1006.4 0.0
22/02:30pm 23.7 21.6 11.1 45 7.2 NW 13 19 7 10 1008.3 1006.9 0.0
22/02:00pm 23.8 22.4 12.1 48 6.8 NNW 11 20 6 11 1008.9 1007.4 0.0
22/01:30pm 23.1 21.7 12.1 50 6.4 N 11 20 6 11 1009.5 1008.1 0.0
22/01:00pm 22.7 22.4 13.2 55 5.6 N 7 13 4 7 1010.0 1008.6 0.0
22/12:30pm 22.1 21.8 13.2 57 5.3 N 7 13 4 7 1010.7 1009.2 0.0

Other Formats:

Comma delimited format used in spreadsheet applications
http://www.bom.gov.au/fwo/IDD60801/IDD60801.94328.axf

JavaScript Object Notation format (JSON) in row-major order
http://www.bom.gov.au/fwo/IDD60801/IDD60801.94328.json